sensor_id;sensor_type;location;lat;lon;timestamp;P1;durP1;ratioP1;P2;durP2;ratioP2
17345;SDS011;8790;53.590;10.002;2023-06-26T00:01:29;13.98;;;12.70;;
17345;SDS011;8790;53.590;10.002;2023-06-26T00:04:02;13.90;;;12.70;;
17345;SDS011;8790;53.590;10.002;2023-06-26T00:06:33;14.55;;;13.25;;
17345;SDS011;8790;53.590;10.002;2023-06-26T00:09:06;14.23;;;13.07;;
17345;SDS011;8790;53.590;10.002;2023-06-26T00:11:37;14.38;;;13.18;;
17345;SDS011;8790;53.590;10.002;2023-06-26T00:14:10;14.23;;;13.13;;
17345;SDS011;8790;53.590;10.002;2023-06-26T00:16:42;14.00;;;12.80;;
17345;SDS011;8790;53.590;10.002;2023-06-26T00:19:14;13.60;;;12.50;;
17345;SDS011;8790;53.590;10.002;2023-06-26T00:21:45;13.90;;;12.80;;
17345;SDS011;8790;53.590;10.002;2023-06-26T00:24:18;14.50;;;13.30;;
17345;SDS011;8790;53.590;10.002;2023-06-26T00:26:50;14.23;;;13.02;;
17345;SDS011;8790;53.590;10.002;2023-06-26T00:29:23;14.82;;;13.52;;
17345;SDS011;8790;53.590;10.002;2023-06-26T00:31:54;13.88;;;12.73;;
17345;SDS011;8790;53.590;10.002;2023-06-26T00:34:26;14.68;;;13.48;;
17345;SDS011;8790;53.590;10.002;2023-06-26T00:36:58;14.73;;;13.43;;
17345;SDS011;8790;53.590;10.002;2023-06-26T00:39:30;13.88;;;12.77;;
17345;SDS011;8790;53.590;10.002;2023-06-26T00:42:02;13.60;;;12.50;;
17345;SDS011;8790;53.590;10.002;2023-06-26T00:44:35;14.45;;;13.15;;
17345;SDS011;8790;53.590;10.002;2023-06-26T00:47:07;14.18;;;12.98;;
17345;SDS011;8790;53.590;10.002;2023-06-26T00:49:40;14.07;;;12.98;;
17345;SDS011;8790;53.590;10.002;2023-06-26T00:52:12;14.20;;;13.02;;
17345;SDS011;8790;53.590;10.002;2023-06-26T00:54:44;14.80;;;13.52;;
17345;SDS011;8790;53.590;10.002;2023-06-26T00:57:15;14.73;;;13.45;;
17345;SDS011;8790;53.590;10.002;2023-06-26T00:59:49;14.10;;;12.90;;
17345;SDS011;8790;53.590;10.002;2023-06-26T01:02:20;14.82;;;13.43;;
17345;SDS011;8790;53.590;10.002;2023-06-26T01:04:54;15.23;;;13.93;;
17345;SDS011;8790;53.590;10.002;2023-06-26T01:07:26;14.70;;;13.55;;
17345;SDS011;8790;53.590;10.002;2023-06-26T01:09:57;14.73;;;13.32;;
17345;SDS011;8790;53.590;10.002;2023-06-26T01:12:30;14.25;;;13.10;;
17345;SDS011;8790;53.590;10.002;2023-06-26T01:15:04;14.40;;;13.23;;
17345;SDS011;8790;53.590;10.002;2023-06-26T01:17:37;14.90;;;13.60;;
17345;SDS011;8790;53.590;10.002;2023-06-26T01:20:09;14.52;;;13.27;;
17345;SDS011;8790;53.590;10.002;2023-06-26T01:22:43;15.00;;;13.77;;
17345;SDS011;8790;53.590;10.002;2023-06-26T01:25:21;14.52;;;13.30;;
17345;SDS011;8790;53.590;10.002;2023-06-26T01:28:10;14.15;;;12.95;;
17345;SDS011;8790;53.590;10.002;2023-06-26T01:30:44;14.65;;;13.32;;
17345;SDS011;8790;53.590;10.002;2023-06-26T01:33:17;14.77;;;13.43;;
17345;SDS011;8790;53.590;10.002;2023-06-26T01:35:49;14.57;;;13.32;;
17345;SDS011;8790;53.590;10.002;2023-06-26T01:38:21;14.68;;;13.48;;
17345;SDS011;8790;53.590;10.002;2023-06-26T01:40:53;15.27;;;13.93;;
17345;SDS011;8790;53.590;10.002;2023-06-26T01:43:27;14.52;;;13.32;;
17345;SDS011;8790;53.590;10.002;2023-06-26T01:46:22;15.70;;;14.35;;
17345;SDS011;8790;53.590;10.002;2023-06-26T01:48:59;14.98;;;13.70;;
17345;SDS011;8790;53.590;10.002;2023-06-26T01:51:35;15.20;;;13.90;;
17345;SDS011;8790;53.590;10.002;2023-06-26T01:54:13;14.40;;;13.30;;
17345;SDS011;8790;53.590;10.002;2023-06-26T01:56:49;15.00;;;13.70;;
17345;SDS011;8790;53.590;10.002;2023-06-26T01:59:26;14.77;;;13.57;;
17345;SDS011;8790;53.590;10.002;2023-06-26T02:02:02;15.07;;;13.88;;
17345;SDS011;8790;53.590;10.002;2023-06-26T02:04:39;15.18;;;13.95;;
17345;SDS011;8790;53.590;10.002;2023-06-26T02:07:11;15.48;;;14.05;;
17345;SDS011;8790;53.590;10.002;2023-06-26T02:09:43;14.95;;;13.65;;
17345;SDS011;8790;53.590;10.002;2023-06-26T02:12:14;15.07;;;13.73;;
17345;SDS011;8790;53.590;10.002;2023-06-26T02:14:47;14.75;;;13.43;;
17345;SDS011;8790;53.590;10.002;2023-06-26T02:17:21;14.50;;;13.20;;
17345;SDS011;8790;53.590;10.002;2023-06-26T02:19:53;14.30;;;13.10;;
17345;SDS011;8790;53.590;10.002;2023-06-26T02:22:24;15.10;;;13.60;;
17345;SDS011;8790;53.590;10.002;2023-06-26T02:24:58;15.15;;;13.65;;
17345;SDS011;8790;53.590;10.002;2023-06-26T02:27:30;14.15;;;13.05;;
17345;SDS011;8790;53.590;10.002;2023-06-26T02:30:03;14.38;;;13.07;;
17345;SDS011;8790;53.590;10.002;2023-06-26T02:32:36;14.07;;;12.88;;
17345;SDS011;8790;53.590;10.002;2023-06-26T02:35:08;14.90;;;13.70;;
17345;SDS011;8790;53.590;10.002;2023-06-26T02:37:45;14.05;;;12.75;;
17345;SDS011;8790;53.590;10.002;2023-06-26T02:40:17;14.05;;;12.85;;
17345;SDS011;8790;53.590;10.002;2023-06-26T02:42:49;13.85;;;12.75;;
17345;SDS011;8790;53.590;10.002;2023-06-26T02:45:23;13.48;;;12.38;;
17345;SDS011;8790;53.590;10.002;2023-06-26T02:47:56;14.15;;;12.80;;
17345;SDS011;8790;53.590;10.002;2023-06-26T02:50:27;13.68;;;12.48;;
17345;SDS011;8790;53.590;10.002;2023-06-26T02:53:11;13.85;;;12.75;;
17345;SDS011;8790;53.590;10.002;2023-06-26T02:55:46;13.82;;;12.63;;
17345;SDS011;8790;53.590;10.002;2023-06-26T02:58:19;13.57;;;12.40;;
17345;SDS011;8790;53.590;10.002;2023-06-26T03:00:54;13.48;;;12.40;;
17345;SDS011;8790;53.590;10.002;2023-06-26T03:03:26;13.05;;;12.00;;
17345;SDS011;8790;53.590;10.002;2023-06-26T03:05:58;13.75;;;12.43;;
17345;SDS011;8790;53.590;10.002;2023-06-26T03:08:31;12.52;;;11.43;;
17345;SDS011;8790;53.590;10.002;2023-06-26T03:11:03;12.95;;;11.80;;
17345;SDS011;8790;53.590;10.002;2023-06-26T03:13:35;12.90;;;11.80;;
17345;SDS011;8790;53.590;10.002;2023-06-26T03:16:08;12.60;;;11.40;;
17345;SDS011;8790;53.590;10.002;2023-06-26T03:18:40;12.98;;;11.82;;
17345;SDS011;8790;53.590;10.002;2023-06-26T03:21:12;13.10;;;11.90;;
17345;SDS011;8790;53.590;10.002;2023-06-26T03:23:44;12.70;;;11.60;;
17345;SDS011;8790;53.590;10.002;2023-06-26T03:26:16;12.57;;;11.57;;
17345;SDS011;8790;53.590;10.002;2023-06-26T03:28:49;12.48;;;11.38;;
17345;SDS011;8790;53.590;10.002;2023-06-26T03:31:22;12.55;;;11.45;;
17345;SDS011;8790;53.590;10.002;2023-06-26T03:33:54;11.90;;;10.90;;
17345;SDS011;8790;53.590;10.002;2023-06-26T03:36:25;12.50;;;11.40;;
17345;SDS011;8790;53.590;10.002;2023-06-26T03:38:57;12.30;;;11.20;;
17345;SDS011;8790;53.590;10.002;2023-06-26T03:41:30;12.00;;;10.93;;
17345;SDS011;8790;53.590;10.002;2023-06-26T03:44:02;11.55;;;10.60;;
17345;SDS011;8790;53.590;10.002;2023-06-26T03:46:42;11.40;;;10.40;;
17345;SDS011;8790;53.590;10.002;2023-06-26T03:49:13;12.23;;;11.13;;
17345;SDS011;8790;53.590;10.002;2023-06-26T03:51:47;11.90;;;10.80;;
17345;SDS011;8790;53.590;10.002;2023-06-26T03:54:19;12.32;;;11.15;;
17345;SDS011;8790;53.590;10.002;2023-06-26T03:56:52;12.43;;;11.23;;
17345;SDS011;8790;53.590;10.002;2023-06-26T03:59:25;12.30;;;11.10;;
17345;SDS011;8790;53.590;10.002;2023-06-26T04:01:58;12.10;;;10.98;;
17345;SDS011;8790;53.590;10.002;2023-06-26T04:04:30;14.65;;;11.07;;
17345;SDS011;8790;53.590;10.002;2023-06-26T04:07:02;12.25;;;11.25;;
17345;SDS011;8790;53.590;10.002;2023-06-26T04:09:34;11.80;;;10.70;;
17345;SDS011;8790;53.590;10.002;2023-06-26T04:12:06;12.00;;;10.90;;
17345;SDS011;8790;53.590;10.002;2023-06-26T04:14:38;12.90;;;10.85;;
17345;SDS011;8790;53.590;10.002;2023-06-26T04:17:11;12.30;;;11.18;;
17345;SDS011;8790;53.590;10.002;2023-06-26T04:19:43;12.50;;;11.40;;
17345;SDS011;8790;53.590;10.002;2023-06-26T04:22:15;12.43;;;11.20;;
17345;SDS011;8790;53.590;10.002;2023-06-26T04:24:47;12.68;;;11.45;;
17345;SDS011;8790;53.590;10.002;2023-06-26T04:27:19;13.73;;;11.45;;
17345;SDS011;8790;53.590;10.002;2023-06-26T04:29:51;11.93;;;10.93;;
17345;SDS011;8790;53.590;10.002;2023-06-26T04:32:24;12.77;;;11.52;;
17345;SDS011;8790;53.590;10.002;2023-06-26T04:34:55;12.55;;;11.23;;
17345;SDS011;8790;53.590;10.002;2023-06-26T04:37:27;11.63;;;10.52;;
17345;SDS011;8790;53.590;10.002;2023-06-26T04:39:59;11.75;;;10.50;;
17345;SDS011;8790;53.590;10.002;2023-06-26T04:42:30;12.32;;;11.10;;
17345;SDS011;8790;53.590;10.002;2023-06-26T04:45:02;11.60;;;10.52;;
17345;SDS011;8790;53.590;10.002;2023-06-26T04:47:36;11.95;;;10.77;;
17345;SDS011;8790;53.590;10.002;2023-06-26T04:50:07;10.55;;;9.65;;
17345;SDS011;8790;53.590;10.002;2023-06-26T04:52:39;12.45;;;11.32;;
17345;SDS011;8790;53.590;10.002;2023-06-26T04:55:11;11.43;;;10.23;;
17345;SDS011;8790;53.590;10.002;2023-06-26T04:57:42;12.18;;;11.10;;
17345;SDS011;8790;53.590;10.002;2023-06-26T05:00:14;11.32;;;10.30;;
17345;SDS011;8790;53.590;10.002;2023-06-26T05:02:47;10.75;;;9.65;;
17345;SDS011;8790;53.590;10.002;2023-06-26T05:05:19;11.60;;;10.50;;
17345;SDS011;8790;53.590;10.002;2023-06-26T05:07:52;13.48;;;10.60;;
17345;SDS011;8790;53.590;10.002;2023-06-26T05:10:25;11.65;;;10.55;;
17345;SDS011;8790;53.590;10.002;2023-06-26T05:12:56;11.43;;;10.05;;
17345;SDS011;8790;53.590;10.002;2023-06-26T05:15:28;11.35;;;10.25;;
17345;SDS011;8790;53.590;10.002;2023-06-26T05:18:01;11.15;;;10.15;;
17345;SDS011;8790;53.590;10.002;2023-06-26T05:20:33;11.63;;;10.52;;
17345;SDS011;8790;53.590;10.002;2023-06-26T05:23:05;14.05;;;10.90;;
17345;SDS011;8790;53.590;10.002;2023-06-26T05:25:38;11.27;;;10.13;;
17345;SDS011;8790;53.590;10.002;2023-06-26T05:28:11;11.13;;;10.02;;
17345;SDS011;8790;53.590;10.002;2023-06-26T05:30:45;11.57;;;10.48;;
17345;SDS011;8790;53.590;10.002;2023-06-26T05:33:19;11.07;;;9.98;;
17345;SDS011;8790;53.590;10.002;2023-06-26T05:35:54;10.98;;;9.98;;
17345;SDS011;8790;53.590;10.002;2023-06-26T05:38:27;10.85;;;9.90;;
17345;SDS011;8790;53.590;10.002;2023-06-26T05:40:59;10.95;;;9.80;;
17345;SDS011;8790;53.590;10.002;2023-06-26T05:43:31;11.07;;;10.02;;
17345;SDS011;8790;53.590;10.002;2023-06-26T05:46:03;11.32;;;9.70;;
17345;SDS011;8790;53.590;10.002;2023-06-26T05:48:36;10.60;;;9.52;;
17345;SDS011;8790;53.590;10.002;2023-06-26T05:51:08;11.70;;;10.50;;
17345;SDS011;8790;53.590;10.002;2023-06-26T05:53:40;12.82;;;9.90;;
17345;SDS011;8790;53.590;10.002;2023-06-26T05:56:13;10.95;;;9.95;;
17345;SDS011;8790;53.590;10.002;2023-06-26T05:58:45;11.50;;;10.50;;
17345;SDS011;8790;53.590;10.002;2023-06-26T06:01:17;10.73;;;9.57;;
17345;SDS011;8790;53.590;10.002;2023-06-26T06:03:51;11.35;;;9.63;;
17345;SDS011;8790;53.590;10.002;2023-06-26T06:06:23;10.85;;;9.75;;
17345;SDS011;8790;53.590;10.002;2023-06-26T06:08:54;11.15;;;10.05;;
17345;SDS011;8790;53.590;10.002;2023-06-26T06:11:26;10.82;;;9.73;;
17345;SDS011;8790;53.590;10.002;2023-06-26T06:13:58;11.32;;;10.23;;
17345;SDS011;8790;53.590;10.002;2023-06-26T06:16:30;14.27;;;9.93;;
17345;SDS011;8790;53.590;10.002;2023-06-26T06:19:03;11.13;;;10.00;;
17345;SDS011;8790;53.590;10.002;2023-06-26T06:21:36;11.30;;;9.88;;
17345;SDS011;8790;53.590;10.002;2023-06-26T06:24:08;10.65;;;9.50;;
17345;SDS011;8790;53.590;10.002;2023-06-26T06:26:41;12.80;;;9.20;;
17345;SDS011;8790;53.590;10.002;2023-06-26T06:29:13;10.73;;;9.73;;
17345;SDS011;8790;53.590;10.002;2023-06-26T06:31:45;10.77;;;9.68;;
17345;SDS011;8790;53.590;10.002;2023-06-26T06:34:18;10.73;;;9.25;;
17345;SDS011;8790;53.590;10.002;2023-06-26T06:36:50;10.45;;;9.35;;
17345;SDS011;8790;53.590;10.002;2023-06-26T06:39:22;9.90;;;8.63;;
17345;SDS011;8790;53.590;10.002;2023-06-26T06:41:54;10.05;;;9.02;;
17345;SDS011;8790;53.590;10.002;2023-06-26T06:44:26;9.85;;;9.05;;
17345;SDS011;8790;53.590;10.002;2023-06-26T06:46:57;10.18;;;9.27;;
17345;SDS011;8790;53.590;10.002;2023-06-26T06:49:31;10.77;;;9.68;;
17345;SDS011;8790;53.590;10.002;2023-06-26T06:52:02;10.88;;;9.63;;
17345;SDS011;8790;53.590;10.002;2023-06-26T06:57:22;11.02;;;9.75;;
17345;SDS011;8790;53.590;10.002;2023-06-26T06:59:54;10.45;;;9.38;;
17345;SDS011;8790;53.590;10.002;2023-06-26T07:02:26;11.27;;;9.30;;
17345;SDS011;8790;53.590;10.002;2023-06-26T07:04:59;11.20;;;10.07;;
17345;SDS011;8790;53.590;10.002;2023-06-26T07:07:31;10.20;;;9.30;;
17345;SDS011;8790;53.590;10.002;2023-06-26T07:10:05;10.55;;;9.55;;
17345;SDS011;8790;53.590;10.002;2023-06-26T07:12:38;9.93;;;9.13;;
17345;SDS011;8790;53.590;10.002;2023-06-26T07:15:10;10.07;;;9.15;;
17345;SDS011;8790;53.590;10.002;2023-06-26T07:17:42;10.20;;;9.30;;
17345;SDS011;8790;53.590;10.002;2023-06-26T07:20:15;10.70;;;9.00;;
17345;SDS011;8790;53.590;10.002;2023-06-26T07:22:48;11.18;;;9.95;;
17345;SDS011;8790;53.590;10.002;2023-06-26T07:25:19;10.82;;;9.88;;
17345;SDS011;8790;53.590;10.002;2023-06-26T07:27:51;10.63;;;9.73;;
17345;SDS011;8790;53.590;10.002;2023-06-26T07:30:23;10.30;;;9.25;;
17345;SDS011;8790;53.590;10.002;2023-06-26T07:32:55;10.68;;;9.48;;
17345;SDS011;8790;53.590;10.002;2023-06-26T07:35:28;10.73;;;9.63;;
17345;SDS011;8790;53.590;10.002;2023-06-26T07:37:59;10.90;;;9.80;;
17345;SDS011;8790;53.590;10.002;2023-06-26T07:40:31;10.27;;;9.20;;
17345;SDS011;8790;53.590;10.002;2023-06-26T07:43:03;11.63;;;10.05;;
17345;SDS011;8790;53.590;10.002;2023-06-26T07:45:35;9.60;;;8.48;;
17345;SDS011;8790;53.590;10.002;2023-06-26T07:48:06;10.27;;;9.32;;
17345;SDS011;8790;53.590;10.002;2023-06-26T07:50:40;9.98;;;9.07;;
17345;SDS011;8790;53.590;10.002;2023-06-26T07:53:12;9.85;;;8.90;;
17345;SDS011;8790;53.590;10.002;2023-06-26T07:55:43;9.90;;;8.93;;
17345;SDS011;8790;53.590;10.002;2023-06-26T07:58:15;9.98;;;8.75;;
17345;SDS011;8790;53.590;10.002;2023-06-26T08:00:47;9.88;;;8.45;;
17345;SDS011;8790;53.590;10.002;2023-06-26T08:03:18;9.68;;;8.77;;
17345;SDS011;8790;53.590;10.002;2023-06-26T08:05:51;10.82;;;8.98;;
17345;SDS011;8790;53.590;10.002;2023-06-26T08:08:23;10.60;;;9.40;;
17345;SDS011;8790;53.590;10.002;2023-06-26T08:10:55;9.55;;;8.65;;
17345;SDS011;8790;53.590;10.002;2023-06-26T08:13:27;10.18;;;9.20;;
17345;SDS011;8790;53.590;10.002;2023-06-26T08:15:58;10.10;;;9.05;;
17345;SDS011;8790;53.590;10.002;2023-06-26T08:18:30;9.30;;;8.50;;
17345;SDS011;8790;53.590;10.002;2023-06-26T08:21:03;9.40;;;8.48;;
17345;SDS011;8790;53.590;10.002;2023-06-26T08:23:35;11.18;;;8.68;;
17345;SDS011;8790;53.590;10.002;2023-06-26T08:26:07;9.45;;;8.32;;
17345;SDS011;8790;53.590;10.002;2023-06-26T08:28:38;12.30;;;8.88;;
17345;SDS011;8790;53.590;10.002;2023-06-26T08:31:10;10.10;;;8.63;;
17345;SDS011;8790;53.590;10.002;2023-06-26T08:33:42;9.60;;;8.70;;
17345;SDS011;8790;53.590;10.002;2023-06-26T08:36:15;9.70;;;8.80;;
17345;SDS011;8790;53.590;10.002;2023-06-26T08:38:47;9.43;;;8.63;;
17345;SDS011;8790;53.590;10.002;2023-06-26T08:41:18;9.15;;;8.25;;
17345;SDS011;8790;53.590;10.002;2023-06-26T08:43:50;9.70;;;8.70;;
17345;SDS011;8790;53.590;10.002;2023-06-26T08:46:22;9.50;;;8.50;;
17345;SDS011;8790;53.590;10.002;2023-06-26T08:48:54;9.32;;;8.63;;
17345;SDS011;8790;53.590;10.002;2023-06-26T08:51:29;9.70;;;8.90;;
17345;SDS011;8790;53.590;10.002;2023-06-26T08:54:04;9.50;;;8.48;;
17345;SDS011;8790;53.590;10.002;2023-06-26T08:56:40;9.57;;;8.57;;
17345;SDS011;8790;53.590;10.002;2023-06-26T08:59:15;9.40;;;8.50;;
17345;SDS011;8790;53.590;10.002;2023-06-26T09:01:47;10.35;;;9.40;;
17345;SDS011;8790;53.590;10.002;2023-06-26T09:04:19;10.13;;;8.70;;
17345;SDS011;8790;53.590;10.002;2023-06-26T09:06:52;9.80;;;8.98;;
17345;SDS011;8790;53.590;10.002;2023-06-26T09:09:23;10.65;;;9.75;;
17345;SDS011;8790;53.590;10.002;2023-06-26T09:11:55;9.52;;;8.57;;
17345;SDS011;8790;53.590;10.002;2023-06-26T09:14:27;10.88;;;9.77;;
17345;SDS011;8790;53.590;10.002;2023-06-26T09:16:59;14.73;;;10.82;;
17345;SDS011;8790;53.590;10.002;2023-06-26T09:19:32;12.00;;;10.85;;
17345;SDS011;8790;53.590;10.002;2023-06-26T09:22:12;12.30;;;11.15;;
17345;SDS011;8790;53.590;10.002;2023-06-26T09:24:45;12.88;;;11.68;;
17345;SDS011;8790;53.590;10.002;2023-06-26T09:27:17;13.45;;;12.00;;
17345;SDS011;8790;53.590;10.002;2023-06-26T09:29:49;13.07;;;11.73;;
17345;SDS011;8790;53.590;10.002;2023-06-26T09:32:23;12.50;;;11.30;;
17345;SDS011;8790;53.590;10.002;2023-06-26T09:34:55;13.23;;;11.73;;
17345;SDS011;8790;53.590;10.002;2023-06-26T09:37:29;12.82;;;11.63;;
17345;SDS011;8790;53.590;10.002;2023-06-26T09:40:00;13.55;;;12.15;;
17345;SDS011;8790;53.590;10.002;2023-06-26T09:42:33;13.57;;;11.38;;
17345;SDS011;8790;53.590;10.002;2023-06-26T09:45:07;13.70;;;11.48;;
17345;SDS011;8790;53.590;10.002;2023-06-26T09:47:48;13.82;;;11.80;;
17345;SDS011;8790;53.590;10.002;2023-06-26T09:50:20;12.23;;;10.95;;
17345;SDS011;8790;53.590;10.002;2023-06-26T09:52:56;14.15;;;11.45;;
17345;SDS011;8790;53.590;10.002;2023-06-26T09:55:28;12.68;;;11.20;;
17345;SDS011;8790;53.590;10.002;2023-06-26T09:58:00;14.20;;;12.05;;
17345;SDS011;8790;53.590;10.002;2023-06-26T10:00:33;14.07;;;12.30;;
17345;SDS011;8790;53.590;10.002;2023-06-26T10:03:05;15.68;;;13.27;;
17345;SDS011;8790;53.590;10.002;2023-06-26T10:05:37;15.30;;;13.00;;
17345;SDS011;8790;53.590;10.002;2023-06-26T10:08:11;13.77;;;12.38;;
17345;SDS011;8790;53.590;10.002;2023-06-26T10:10:44;12.25;;;11.05;;
17345;SDS011;8790;53.590;10.002;2023-06-26T10:13:18;15.98;;;13.55;;
17345;SDS011;8790;53.590;10.002;2023-06-26T10:15:55;14.20;;;12.80;;
17345;SDS011;8790;53.590;10.002;2023-06-26T10:18:30;14.50;;;13.10;;
17345;SDS011;8790;53.590;10.002;2023-06-26T10:21:04;13.63;;;12.40;;
17345;SDS011;8790;53.590;10.002;2023-06-26T10:23:39;14.88;;;13.23;;
17345;SDS011;8790;53.590;10.002;2023-06-26T10:26:14;13.60;;;12.25;;
17345;SDS011;8790;53.590;10.002;2023-06-26T10:28:46;10.30;;;9.27;;
17345;SDS011;8790;53.590;10.002;2023-06-26T10:31:22;8.52;;;6.45;;
17345;SDS011;8790;53.590;10.002;2023-06-26T10:33:57;9.63;;;7.05;;
17345;SDS011;8790;53.590;10.002;2023-06-26T10:36:30;8.25;;;6.53;;
17345;SDS011;8790;53.590;10.002;2023-06-26T10:39:04;8.27;;;7.25;;
17345;SDS011;8790;53.590;10.002;2023-06-26T10:41:37;8.98;;;7.28;;
17345;SDS011;8790;53.590;10.002;2023-06-26T10:44:11;8.73;;;7.00;;
17345;SDS011;8790;53.590;10.002;2023-06-26T10:46:50;8.27;;;7.38;;
17345;SDS011;8790;53.590;10.002;2023-06-26T10:49:24;8.98;;;6.75;;
17345;SDS011;8790;53.590;10.002;2023-06-26T10:52:00;7.43;;;6.72;;
17345;SDS011;8790;53.590;10.002;2023-06-26T10:54:34;7.32;;;6.63;;
17345;SDS011;8790;53.590;10.002;2023-06-26T10:57:06;7.50;;;6.45;;
17345;SDS011;8790;53.590;10.002;2023-06-26T10:59:39;7.85;;;7.13;;
17345;SDS011;8790;53.590;10.002;2023-06-26T11:02:12;8.20;;;7.32;;
17345;SDS011;8790;53.590;10.002;2023-06-26T11:04:44;8.45;;;7.63;;
17345;SDS011;8790;53.590;10.002;2023-06-26T11:07:18;14.55;;;9.45;;
17345;SDS011;8790;53.590;10.002;2023-06-26T11:09:55;11.80;;;9.50;;
17345;SDS011;8790;53.590;10.002;2023-06-26T11:12:35;12.25;;;9.57;;
17345;SDS011;8790;53.590;10.002;2023-06-26T11:15:08;10.25;;;9.25;;
17345;SDS011;8790;53.590;10.002;2023-06-26T11:17:40;12.13;;;10.02;;
17345;SDS011;8790;53.590;10.002;2023-06-26T11:20:14;10.85;;;8.77;;
17345;SDS011;8790;53.590;10.002;2023-06-26T11:22:47;10.02;;;8.27;;
17345;SDS011;8790;53.590;10.002;2023-06-26T11:25:24;11.95;;;9.10;;
17345;SDS011;8790;53.590;10.002;2023-06-26T11:27:57;11.82;;;8.43;;
17345;SDS011;8790;53.590;10.002;2023-06-26T11:30:28;11.75;;;7.80;;
17345;SDS011;8790;53.590;10.002;2023-06-26T11:33:03;11.20;;;7.57;;
17345;SDS011;8790;53.590;10.002;2023-06-26T11:35:36;10.27;;;7.50;;
17345;SDS011;8790;53.590;10.002;2023-06-26T11:38:08;7.90;;;6.75;;
17345;SDS011;8790;53.590;10.002;2023-06-26T11:40:41;10.23;;;6.60;;
17345;SDS011;8790;53.590;10.002;2023-06-26T11:43:14;10.82;;;6.40;;
17345;SDS011;8790;53.590;10.002;2023-06-26T11:45:46;13.65;;;6.57;;
17345;SDS011;8790;53.590;10.002;2023-06-26T11:48:23;10.18;;;6.72;;
17345;SDS011;8790;53.590;10.002;2023-06-26T11:50:56;10.50;;;5.78;;
17345;SDS011;8790;53.590;10.002;2023-06-26T11:53:28;10.57;;;5.50;;
17345;SDS011;8790;53.590;10.002;2023-06-26T11:56:01;8.88;;;4.50;;
17345;SDS011;8790;53.590;10.002;2023-06-26T12:01:31;7.50;;;3.88;;
17345;SDS011;8790;53.590;10.002;2023-06-26T12:04:04;9.60;;;3.70;;
17345;SDS011;8790;53.590;10.002;2023-06-26T12:06:38;7.75;;;3.80;;
17345;SDS011;8790;53.590;10.002;2023-06-26T12:09:11;7.93;;;3.25;;
17345;SDS011;8790;53.590;10.002;2023-06-26T12:11:46;8.90;;;3.38;;
17345;SDS011;8790;53.590;10.002;2023-06-26T12:14:19;6.90;;;2.97;;
17345;SDS011;8790;53.590;10.002;2023-06-26T12:16:53;6.07;;;3.20;;
17345;SDS011;8790;53.590;10.002;2023-06-26T12:19:25;9.20;;;3.55;;
17345;SDS011;8790;53.590;10.002;2023-06-26T12:21:58;7.05;;;3.10;;
17345;SDS011;8790;53.590;10.002;2023-06-26T12:24:29;7.90;;;3.45;;
17345;SDS011;8790;53.590;10.002;2023-06-26T12:27:07;8.82;;;3.40;;
17345;SDS011;8790;53.590;10.002;2023-06-26T12:29:40;6.85;;;3.20;;
17345;SDS011;8790;53.590;10.002;2023-06-26T12:32:12;7.75;;;3.00;;
17345;SDS011;8790;53.590;10.002;2023-06-26T12:34:46;8.32;;;2.97;;
17345;SDS011;8790;53.590;10.002;2023-06-26T12:37:19;7.72;;;3.22;;
17345;SDS011;8790;53.590;10.002;2023-06-26T12:39:52;8.25;;;3.30;;
17345;SDS011;8790;53.590;10.002;2023-06-26T12:42:26;10.82;;;3.45;;
17345;SDS011;8790;53.590;10.002;2023-06-26T12:44:59;5.70;;;3.25;;
17345;SDS011;8790;53.590;10.002;2023-06-26T12:47:41;5.93;;;2.80;;
17345;SDS011;8790;53.590;10.002;2023-06-26T12:50:12;6.88;;;2.80;;
17345;SDS011;8790;53.590;10.002;2023-06-26T12:52:44;5.95;;;2.85;;
17345;SDS011;8790;53.590;10.002;2023-06-26T12:55:16;7.30;;;2.40;;
17345;SDS011;8790;53.590;10.002;2023-06-26T12:57:49;6.18;;;2.63;;
17345;SDS011;8790;53.590;10.002;2023-06-26T13:00:21;6.85;;;2.58;;
17345;SDS011;8790;53.590;10.002;2023-06-26T13:02:53;6.38;;;2.80;;
17345;SDS011;8790;53.590;10.002;2023-06-26T13:05:25;6.03;;;2.60;;
17345;SDS011;8790;53.590;10.002;2023-06-26T13:07:57;3.90;;;2.08;;
17345;SDS011;8790;53.590;10.002;2023-06-26T13:10:30;5.38;;;2.60;;
17345;SDS011;8790;53.590;10.002;2023-06-26T13:13:03;8.50;;;2.80;;
17345;SDS011;8790;53.590;10.002;2023-06-26T13:15:34;7.18;;;2.38;;
17345;SDS011;8790;53.590;10.002;2023-06-26T13:18:06;6.10;;;2.50;;
17345;SDS011;8790;53.590;10.002;2023-06-26T13:20:38;7.60;;;2.70;;
17345;SDS011;8790;53.590;10.002;2023-06-26T13:23:09;5.18;;;2.58;;
17345;SDS011;8790;53.590;10.002;2023-06-26T13:25:41;5.65;;;2.53;;
17345;SDS011;8790;53.590;10.002;2023-06-26T13:28:14;4.25;;;2.30;;
17345;SDS011;8790;53.590;10.002;2023-06-26T13:30:46;5.18;;;2.47;;
17345;SDS011;8790;53.590;10.002;2023-06-26T13:33:18;6.30;;;2.10;;
17345;SDS011;8790;53.590;10.002;2023-06-26T13:35:49;4.55;;;2.42;;
17345;SDS011;8790;53.590;10.002;2023-06-26T13:38:21;6.55;;;2.40;;
17345;SDS011;8790;53.590;10.002;2023-06-26T13:40:55;5.60;;;2.42;;
17345;SDS011;8790;53.590;10.002;2023-06-26T13:43:28;4.28;;;2.45;;
17345;SDS011;8790;53.590;10.002;2023-06-26T13:46:00;5.20;;;2.30;;
17345;SDS011;8790;53.590;10.002;2023-06-26T13:48:32;6.47;;;2.40;;
17345;SDS011;8790;53.590;10.002;2023-06-26T13:51:04;3.28;;;2.38;;
17345;SDS011;8790;53.590;10.002;2023-06-26T13:53:36;3.35;;;2.25;;
17345;SDS011;8790;53.590;10.002;2023-06-26T13:56:07;6.28;;;2.22;;
17345;SDS011;8790;53.590;10.002;2023-06-26T13:58:41;8.48;;;2.03;;
17345;SDS011;8790;53.590;10.002;2023-06-26T14:01:12;3.75;;;2.38;;
17345;SDS011;8790;53.590;10.002;2023-06-26T14:03:44;5.72;;;2.30;;
17345;SDS011;8790;53.590;10.002;2023-06-26T14:06:16;3.70;;;2.00;;
17345;SDS011;8790;53.590;10.002;2023-06-26T14:08:47;4.53;;;2.00;;
17345;SDS011;8790;53.590;10.002;2023-06-26T14:11:19;3.25;;;2.08;;
17345;SDS011;8790;53.590;10.002;2023-06-26T14:13:54;5.25;;;2.30;;
17345;SDS011;8790;53.590;10.002;2023-06-26T14:16:25;2.67;;;1.95;;
17345;SDS011;8790;53.590;10.002;2023-06-26T14:18:58;3.78;;;2.00;;
17345;SDS011;8790;53.590;10.002;2023-06-26T14:21:30;8.65;;;2.10;;
17345;SDS011;8790;53.590;10.002;2023-06-26T14:24:03;4.32;;;2.33;;
17345;SDS011;8790;53.590;10.002;2023-06-26T14:26:35;3.70;;;1.90;;
17345;SDS011;8790;53.590;10.002;2023-06-26T14:29:08;2.40;;;1.75;;
17345;SDS011;8790;53.590;10.002;2023-06-26T14:31:40;5.45;;;2.15;;
17345;SDS011;8790;53.590;10.002;2023-06-26T14:34:12;3.97;;;1.92;;
17345;SDS011;8790;53.590;10.002;2023-06-26T14:36:43;4.22;;;1.88;;
17345;SDS011;8790;53.590;10.002;2023-06-26T14:39:15;4.15;;;2.00;;
17345;SDS011;8790;53.590;10.002;2023-06-26T14:41:47;4.60;;;1.83;;
17345;SDS011;8790;53.590;10.002;2023-06-26T14:44:20;2.72;;;1.70;;
17345;SDS011;8790;53.590;10.002;2023-06-26T14:46:52;2.88;;;1.83;;
17345;SDS011;8790;53.590;10.002;2023-06-26T14:49:24;3.90;;;2.00;;
17345;SDS011;8790;53.590;10.002;2023-06-26T14:51:56;3.28;;;1.90;;
17345;SDS011;8790;53.590;10.002;2023-06-26T14:54:28;3.85;;;1.88;;
17345;SDS011;8790;53.590;10.002;2023-06-26T14:57:00;3.55;;;2.00;;
17345;SDS011;8790;53.590;10.002;2023-06-26T14:59:33;5.20;;;2.00;;
17345;SDS011;8790;53.590;10.002;2023-06-26T15:02:05;3.78;;;1.98;;
17345;SDS011;8790;53.590;10.002;2023-06-26T15:04:37;3.38;;;1.88;;
17345;SDS011;8790;53.590;10.002;2023-06-26T15:07:09;5.22;;;2.17;;
17345;SDS011;8790;53.590;10.002;2023-06-26T15:09:41;1.92;;;1.60;;
17345;SDS011;8790;53.590;10.002;2023-06-26T15:12:12;3.70;;;2.03;;